sensor_id;sensor_type;location;lat;lon;timestamp;temperature;humidity
10875;DHT22;5490;52.200;8.786;2023-03-14T00:00:11;10.40;99.90
10875;DHT22;5490;52.200;8.786;2023-03-14T00:02:41;10.50;99.90
10875;DHT22;5490;52.200;8.786;2023-03-14T00:05:09;10.40;99.90
10875;DHT22;5490;52.200;8.786;2023-03-14T00:07:37;10.40;99.90
10875;DHT22;5490;52.200;8.786;2023-03-14T00:10:08;10.40;99.90
10875;DHT22;5490;52.200;8.786;2023-03-14T00:12:35;10.40;99.90
10875;DHT22;5490;52.200;8.786;2023-03-14T00:15:02;10.40;99.90
10875;DHT22;5490;52.200;8.786;2023-03-14T00:17:30;10.40;99.90
10875;DHT22;5490;52.200;8.786;2023-03-14T00:19:57;10.40;99.90
10875;DHT22;5490;52.200;8.786;2023-03-14T00:22:29;10.40;99.90
10875;DHT22;5490;52.200;8.786;2023-03-14T00:24:56;10.30;99.90
10875;DHT22;5490;52.200;8.786;2023-03-14T00:27:24;10.30;99.90
10875;DHT22;5490;52.200;8.786;2023-03-14T00:29:51;10.30;99.90
10875;DHT22;5490;52.200;8.786;2023-03-14T00:32:18;10.30;99.90
10875;DHT22;5490;52.200;8.786;2023-03-14T00:34:46;10.30;99.90
10875;DHT22;5490;52.200;8.786;2023-03-14T00:37:12;10.30;99.90
10875;DHT22;5490;52.200;8.786;2023-03-14T00:39:39;10.30;99.90
10875;DHT22;5490;52.200;8.786;2023-03-14T00:42:06;10.30;99.90
10875;DHT22;5490;52.200;8.786;2023-03-14T00:44:34;10.30;99.90
10875;DHT22;5490;52.200;8.786;2023-03-14T00:47:01;10.30;99.90
10875;DHT22;5490;52.200;8.786;2023-03-14T00:49:27;10.20;99.90
10875;DHT22;5490;52.200;8.786;2023-03-14T00:51:54;10.30;99.90
10875;DHT22;5490;52.200;8.786;2023-03-14T00:54:21;10.20;99.90
10875;DHT22;5490;52.200;8.786;2023-03-14T00:56:48;10.20;99.90
10875;DHT22;5490;52.200;8.786;2023-03-14T00:59:15;10.20;99.90
10875;DHT22;5490;52.200;8.786;2023-03-14T01:01:44;10.20;99.90
10875;DHT22;5490;52.200;8.786;2023-03-14T01:04:10;10.20;99.90
10875;DHT22;5490;52.200;8.786;2023-03-14T01:06:38;10.20;99.90
10875;DHT22;5490;52.200;8.786;2023-03-14T01:09:05;10.20;99.90
10875;DHT22;5490;52.200;8.786;2023-03-14T01:11:33;10.20;99.90
10875;DHT22;5490;52.200;8.786;2023-03-14T01:14:01;10.20;99.90
10875;DHT22;5490;52.200;8.786;2023-03-14T01:16:30;10.20;99.90
10875;DHT22;5490;52.200;8.786;2023-03-14T01:18:58;10.20;99.90
10875;DHT22;5490;52.200;8.786;2023-03-14T01:21:26;10.30;99.90
10875;DHT22;5490;52.200;8.786;2023-03-14T01:23:55;10.20;99.90
10875;DHT22;5490;52.200;8.786;2023-03-14T01:26:24;10.20;99.90
10875;DHT22;5490;52.200;8.786;2023-03-14T01:28:52;10.30;99.90
10875;DHT22;5490;52.200;8.786;2023-03-14T01:31:20;10.20;99.90
10875;DHT22;5490;52.200;8.786;2023-03-14T01:33:47;10.20;99.90
10875;DHT22;5490;52.200;8.786;2023-03-14T01:36:15;10.30;99.90
10875;DHT22;5490;52.200;8.786;2023-03-14T01:38:42;10.30;99.90
10875;DHT22;5490;52.200;8.786;2023-03-14T01:41:14;10.30;99.90
10875;DHT22;5490;52.200;8.786;2023-03-14T01:43:41;10.30;99.90
10875;DHT22;5490;52.200;8.786;2023-03-14T01:46:30;10.30;99.90
10875;DHT22;5490;52.200;8.786;2023-03-14T01:49:09;10.30;99.90
10875;DHT22;5490;52.200;8.786;2023-03-14T01:51:42;10.30;99.90
10875;DHT22;5490;52.200;8.786;2023-03-14T01:54:16;10.30;99.90
10875;DHT22;5490;52.200;8.786;2023-03-14T01:56:47;10.30;99.90
10875;DHT22;5490;52.200;8.786;2023-03-14T01:59:15;10.30;99.90
10875;DHT22;5490;52.200;8.786;2023-03-14T02:01:44;10.30;99.90
10875;DHT22;5490;52.200;8.786;2023-03-14T02:04:13;10.30;99.90
10875;DHT22;5490;52.200;8.786;2023-03-14T02:06:49;10.40;99.90
10875;DHT22;5490;52.200;8.786;2023-03-14T02:09:16;10.40;99.90
10875;DHT22;5490;52.200;8.786;2023-03-14T02:11:43;10.40;99.90
10875;DHT22;5490;52.200;8.786;2023-03-14T02:14:17;10.40;99.90
10875;DHT22;5490;52.200;8.786;2023-03-14T02:16:47;10.40;99.90
10875;DHT22;5490;52.200;8.786;2023-03-14T02:19:18;10.50;99.90
10875;DHT22;5490;52.200;8.786;2023-03-14T02:21:55;10.50;99.90
10875;DHT22;5490;52.200;8.786;2023-03-14T02:24:29;10.50;99.90
10875;DHT22;5490;52.200;8.786;2023-03-14T02:27:06;10.50;99.90
10875;DHT22;5490;52.200;8.786;2023-03-14T02:29:36;10.50;99.90
10875;DHT22;5490;52.200;8.786;2023-03-14T02:32:04;10.60;99.90
10875;DHT22;5490;52.200;8.786;2023-03-14T02:34:31;10.60;99.90
10875;DHT22;5490;52.200;8.786;2023-03-14T02:36:58;10.60;99.90
10875;DHT22;5490;52.200;8.786;2023-03-14T02:39:31;10.60;99.90
10875;DHT22;5490;52.200;8.786;2023-03-14T02:42:00;10.60;99.90
10875;DHT22;5490;52.200;8.786;2023-03-14T02:44:28;10.60;99.90
10875;DHT22;5490;52.200;8.786;2023-03-14T02:46:55;10.70;99.90
10875;DHT22;5490;52.200;8.786;2023-03-14T02:49:22;10.70;99.90
10875;DHT22;5490;52.200;8.786;2023-03-14T02:51:49;10.70;99.90
10875;DHT22;5490;52.200;8.786;2023-03-14T02:54:16;10.70;99.90
10875;DHT22;5490;52.200;8.786;2023-03-14T02:56:44;10.60;99.90
10875;DHT22;5490;52.200;8.786;2023-03-14T02:59:11;10.50;99.90
10875;DHT22;5490;52.200;8.786;2023-03-14T03:01:39;10.40;99.90
10875;DHT22;5490;52.200;8.786;2023-03-14T03:04:05;10.20;99.90
10875;DHT22;5490;52.200;8.786;2023-03-14T03:06:32;10.10;99.90
10875;DHT22;5490;52.200;8.786;2023-03-14T03:08:59;10.00;99.90
10875;DHT22;5490;52.200;8.786;2023-03-14T03:11:26;9.90;99.90
10875;DHT22;5490;52.200;8.786;2023-03-14T03:13:52;9.90;99.90
10875;DHT22;5490;52.200;8.786;2023-03-14T03:16:19;9.80;99.90
10875;DHT22;5490;52.200;8.786;2023-03-14T03:18:47;9.70;99.90
10875;DHT22;5490;52.200;8.786;2023-03-14T03:21:14;9.70;99.90
10875;DHT22;5490;52.200;8.786;2023-03-14T03:23:41;9.60;99.90
10875;DHT22;5490;52.200;8.786;2023-03-14T03:26:09;9.60;99.90
10875;DHT22;5490;52.200;8.786;2023-03-14T03:28:36;9.50;99.90
10875;DHT22;5490;52.200;8.786;2023-03-14T03:31:07;9.50;99.90
10875;DHT22;5490;52.200;8.786;2023-03-14T03:33:34;9.40;99.90
10875;DHT22;5490;52.200;8.786;2023-03-14T03:46:09;9.40;99.90
10875;DHT22;5490;52.200;8.786;2023-03-14T03:48:36;9.20;99.90
10875;DHT22;5490;52.200;8.786;2023-03-14T03:51:03;9.20;99.90
10875;DHT22;5490;52.200;8.786;2023-03-14T03:53:29;9.20;99.90
10875;DHT22;5490;52.200;8.786;2023-03-14T03:55:56;9.10;99.90
10875;DHT22;5490;52.200;8.786;2023-03-14T03:58:23;9.10;99.90
10875;DHT22;5490;52.200;8.786;2023-03-14T04:00:50;9.10;99.90
10875;DHT22;5490;52.200;8.786;2023-03-14T04:03:18;9.00;99.90
10875;DHT22;5490;52.200;8.786;2023-03-14T04:40:11;9.00;99.90
10875;DHT22;5490;52.200;8.786;2023-03-14T04:42:38;8.90;99.90
10875;DHT22;5490;52.200;8.786;2023-03-14T04:45:06;8.90;99.90
10875;DHT22;5490;52.200;8.786;2023-03-14T04:47:33;8.90;99.90
10875;DHT22;5490;52.200;8.786;2023-03-14T04:50:00;8.80;99.90
10875;DHT22;5490;52.200;8.786;2023-03-14T04:52:27;8.90;99.90
10875;DHT22;5490;52.200;8.786;2023-03-14T04:54:53;8.80;99.90
10875;DHT22;5490;52.200;8.786;2023-03-14T04:57:21;8.90;99.90
10875;DHT22;5490;52.200;8.786;2023-03-14T04:59:48;8.80;99.90
10875;DHT22;5490;52.200;8.786;2023-03-14T05:02:15;8.90;99.90
10875;DHT22;5490;52.200;8.786;2023-03-14T05:04:41;8.80;99.90
10875;DHT22;5490;52.200;8.786;2023-03-14T05:07:08;8.80;99.90
10875;DHT22;5490;52.200;8.786;2023-03-14T05:09:35;8.80;99.90
10875;DHT22;5490;52.200;8.786;2023-03-14T05:12:02;8.80;99.90
10875;DHT22;5490;52.200;8.786;2023-03-14T05:14:30;8.70;99.90
10875;DHT22;5490;52.200;8.786;2023-03-14T05:16:57;8.70;99.90
10875;DHT22;5490;52.200;8.786;2023-03-14T05:19:23;8.70;99.90
10875;DHT22;5490;52.200;8.786;2023-03-14T05:21:50;8.70;99.90
10875;DHT22;5490;52.200;8.786;2023-03-14T05:24:17;8.70;99.90
10875;DHT22;5490;52.200;8.786;2023-03-14T05:26:44;8.70;99.90
10875;DHT22;5490;52.200;8.786;2023-03-14T05:29:10;8.60;99.90
10875;DHT22;5490;52.200;8.786;2023-03-14T05:31:38;8.70;99.90
10875;DHT22;5490;52.200;8.786;2023-03-14T05:34:05;8.70;99.90
10875;DHT22;5490;52.200;8.786;2023-03-14T05:36:32;8.80;99.90
10875;DHT22;5490;52.200;8.786;2023-03-14T05:38:58;8.80;99.90
10875;DHT22;5490;52.200;8.786;2023-03-14T05:41:25;8.80;99.90
10875;DHT22;5490;52.200;8.786;2023-03-14T05:43:52;8.90;99.90
10875;DHT22;5490;52.200;8.786;2023-03-14T05:46:18;8.90;99.90
10875;DHT22;5490;52.200;8.786;2023-03-14T05:48:46;8.90;99.90
10875;DHT22;5490;52.200;8.786;2023-03-14T05:51:13;9.00;99.90
10875;DHT22;5490;52.200;8.786;2023-03-14T05:53:40;9.00;99.90
10875;DHT22;5490;52.200;8.786;2023-03-14T05:56:08;9.00;99.90
10875;DHT22;5490;52.200;8.786;2023-03-14T05:58:34;9.00;99.90
10875;DHT22;5490;52.200;8.786;2023-03-14T06:01:03;9.00;99.90
10875;DHT22;5490;52.200;8.786;2023-03-14T06:03:31;9.00;99.90
10875;DHT22;5490;52.200;8.786;2023-03-14T06:05:59;9.10;99.90
10875;DHT22;5490;52.200;8.786;2023-03-14T06:08:27;9.10;99.90
10875;DHT22;5490;52.200;8.786;2023-03-14T06:10:54;9.10;99.90
10875;DHT22;5490;52.200;8.786;2023-03-14T06:13:21;9.20;99.90
10875;DHT22;5490;52.200;8.786;2023-03-14T06:15:47;9.20;99.90
10875;DHT22;5490;52.200;8.786;2023-03-14T06:18:16;9.20;99.90
10875;DHT22;5490;52.200;8.786;2023-03-14T06:20:43;9.30;99.90
10875;DHT22;5490;52.200;8.786;2023-03-14T06:23:11;9.30;99.90
10875;DHT22;5490;52.200;8.786;2023-03-14T06:25:38;9.30;99.90
10875;DHT22;5490;52.200;8.786;2023-03-14T06:28:05;9.40;99.90
10875;DHT22;5490;52.200;8.786;2023-03-14T06:30:32;9.40;99.90
10875;DHT22;5490;52.200;8.786;2023-03-14T06:32:59;9.30;99.90
10875;DHT22;5490;52.200;8.786;2023-03-14T06:35:27;9.30;99.90
10875;DHT22;5490;52.200;8.786;2023-03-14T06:37:54;9.30;99.90
10875;DHT22;5490;52.200;8.786;2023-03-14T06:40:22;9.30;99.90
10875;DHT22;5490;52.200;8.786;2023-03-14T06:42:49;9.30;99.90
10875;DHT22;5490;52.200;8.786;2023-03-14T06:45:16;9.40;99.90
10875;DHT22;5490;52.200;8.786;2023-03-14T06:47:43;9.40;99.90
10875;DHT22;5490;52.200;8.786;2023-03-14T06:50:10;9.40;99.90
10875;DHT22;5490;52.200;8.786;2023-03-14T06:52:37;9.40;99.90
10875;DHT22;5490;52.200;8.786;2023-03-14T06:55:07;9.40;99.90
10875;DHT22;5490;52.200;8.786;2023-03-14T06:57:35;9.40;99.90
10875;DHT22;5490;52.200;8.786;2023-03-14T07:00:02;9.40;99.90
10875;DHT22;5490;52.200;8.786;2023-03-14T07:02:30;9.40;99.90
10875;DHT22;5490;52.200;8.786;2023-03-14T07:04:57;9.40;99.90
10875;DHT22;5490;52.200;8.786;2023-03-14T07:07:24;9.30;99.90
10875;DHT22;5490;52.200;8.786;2023-03-14T07:09:53;9.40;99.90
10875;DHT22;5490;52.200;8.786;2023-03-14T07:12:20;9.40;99.90
10875;DHT22;5490;52.200;8.786;2023-03-14T07:14:51;9.30;99.90
10875;DHT22;5490;52.200;8.786;2023-03-14T07:17:17;9.40;99.90
10875;DHT22;5490;52.200;8.786;2023-03-14T07:19:44;9.40;99.90
10875;DHT22;5490;52.200;8.786;2023-03-14T07:22:12;9.40;99.90
10875;DHT22;5490;52.200;8.786;2023-03-14T07:24:41;9.40;99.90
10875;DHT22;5490;52.200;8.786;2023-03-14T07:27:08;9.50;99.90
10875;DHT22;5490;52.200;8.786;2023-03-14T07:29:36;9.50;99.90
10875;DHT22;5490;52.200;8.786;2023-03-14T07:32:04;9.60;99.90
10875;DHT22;5490;52.200;8.786;2023-03-14T07:34:34;9.70;99.90
10875;DHT22;5490;52.200;8.786;2023-03-14T07:37:01;9.70;99.90
10875;DHT22;5490;52.200;8.786;2023-03-14T07:39:29;9.70;99.90
10875;DHT22;5490;52.200;8.786;2023-03-14T07:41:56;9.70;99.90
10875;DHT22;5490;52.200;8.786;2023-03-14T07:44:23;9.70;99.90
10875;DHT22;5490;52.200;8.786;2023-03-14T07:46:49;9.70;99.90
10875;DHT22;5490;52.200;8.786;2023-03-14T07:49:18;9.70;99.90
10875;DHT22;5490;52.200;8.786;2023-03-14T07:51:47;9.70;99.90
10875;DHT22;5490;52.200;8.786;2023-03-14T07:54:14;9.90;99.90
10875;DHT22;5490;52.200;8.786;2023-03-14T07:56:41;9.80;99.90
10875;DHT22;5490;52.200;8.786;2023-03-14T07:59:09;9.80;99.90
10875;DHT22;5490;52.200;8.786;2023-03-14T08:01:36;9.90;99.90
10875;DHT22;5490;52.200;8.786;2023-03-14T08:04:03;10.00;99.90
10875;DHT22;5490;52.200;8.786;2023-03-14T08:06:31;9.90;99.90
10875;DHT22;5490;52.200;8.786;2023-03-14T08:09:00;9.90;99.90
10875;DHT22;5490;52.200;8.786;2023-03-14T08:11:27;9.90;99.90
10875;DHT22;5490;52.200;8.786;2023-03-14T08:13:53;9.90;99.90
10875;DHT22;5490;52.200;8.786;2023-03-14T08:16:21;9.90;99.90
10875;DHT22;5490;52.200;8.786;2023-03-14T08:18:48;9.90;99.90
10875;DHT22;5490;52.200;8.786;2023-03-14T08:21:14;9.90;99.90
10875;DHT22;5490;52.200;8.786;2023-03-14T08:23:43;10.00;99.90
10875;DHT22;5490;52.200;8.786;2023-03-14T08:26:09;10.00;99.90
10875;DHT22;5490;52.200;8.786;2023-03-14T08:28:36;10.00;99.90
10875;DHT22;5490;52.200;8.786;2023-03-14T08:31:04;10.10;99.90
10875;DHT22;5490;52.200;8.786;2023-03-14T08:33:31;10.10;99.90
10875;DHT22;5490;52.200;8.786;2023-03-14T08:35:59;10.10;99.90
10875;DHT22;5490;52.200;8.786;2023-03-14T08:38:26;10.10;99.90
10875;DHT22;5490;52.200;8.786;2023-03-14T08:40:58;10.20;99.90
10875;DHT22;5490;52.200;8.786;2023-03-14T08:43:26;10.20;99.90
10875;DHT22;5490;52.200;8.786;2023-03-14T08:45:53;10.20;99.90
10875;DHT22;5490;52.200;8.786;2023-03-14T08:48:20;10.20;99.90
10875;DHT22;5490;52.200;8.786;2023-03-14T08:50:46;10.20;99.90
10875;DHT22;5490;52.200;8.786;2023-03-14T08:53:13;10.30;99.90
10875;DHT22;5490;52.200;8.786;2023-03-14T08:55:40;10.30;99.90
10875;DHT22;5490;52.200;8.786;2023-03-14T08:58:08;10.40;99.90
10875;DHT22;5490;52.200;8.786;2023-03-14T09:00:35;10.40;99.90
10875;DHT22;5490;52.200;8.786;2023-03-14T09:03:02;10.50;99.90
10875;DHT22;5490;52.200;8.786;2023-03-14T09:05:28;10.60;99.90
10875;DHT22;5490;52.200;8.786;2023-03-14T09:07:55;10.70;99.90
10875;DHT22;5490;52.200;8.786;2023-03-14T09:10:22;10.70;99.90
10875;DHT22;5490;52.200;8.786;2023-03-14T09:12:49;10.80;99.90
10875;DHT22;5490;52.200;8.786;2023-03-14T09:15:17;10.90;99.90
10875;DHT22;5490;52.200;8.786;2023-03-14T09:17:44;11.00;99.90
10875;DHT22;5490;52.200;8.786;2023-03-14T09:20:11;11.00;99.90
10875;DHT22;5490;52.200;8.786;2023-03-14T09:22:39;11.10;99.90
10875;DHT22;5490;52.200;8.786;2023-03-14T09:25:07;11.20;99.90
10875;DHT22;5490;52.200;8.786;2023-03-14T09:27:34;11.30;99.90
10875;DHT22;5490;52.200;8.786;2023-03-14T09:30:02;11.20;99.90
10875;DHT22;5490;52.200;8.786;2023-03-14T09:32:30;11.20;99.90
10875;DHT22;5490;52.200;8.786;2023-03-14T09:34:57;11.30;99.90
10875;DHT22;5490;52.200;8.786;2023-03-14T09:37:24;11.20;99.90
10875;DHT22;5490;52.200;8.786;2023-03-14T09:39:51;11.20;99.90
10875;DHT22;5490;52.200;8.786;2023-03-14T09:42:21;11.30;99.90
10875;DHT22;5490;52.200;8.786;2023-03-14T09:44:53;11.20;99.90
10875;DHT22;5490;52.200;8.786;2023-03-14T09:47:21;11.30;99.90
10875;DHT22;5490;52.200;8.786;2023-03-14T09:49:50;11.40;99.90
10875;DHT22;5490;52.200;8.786;2023-03-14T09:52:20;11.40;99.90
10875;DHT22;5490;52.200;8.786;2023-03-14T09:54:50;11.50;99.90
10875;DHT22;5490;52.200;8.786;2023-03-14T09:57:19;11.50;99.90
10875;DHT22;5490;52.200;8.786;2023-03-14T09:59:48;11.50;99.90
10875;DHT22;5490;52.200;8.786;2023-03-14T10:02:18;11.60;99.90
10875;DHT22;5490;52.200;8.786;2023-03-14T10:04:46;11.60;99.90
10875;DHT22;5490;52.200;8.786;2023-03-14T10:07:16;11.70;99.90
10875;DHT22;5490;52.200;8.786;2023-03-14T10:09:47;11.70;99.90
10875;DHT22;5490;52.200;8.786;2023-03-14T10:12:15;11.70;99.90
10875;DHT22;5490;52.200;8.786;2023-03-14T10:14:48;11.70;99.90
10875;DHT22;5490;52.200;8.786;2023-03-14T10:17:17;11.70;99.90
10875;DHT22;5490;52.200;8.786;2023-03-14T10:19:55;11.70;99.90
10875;DHT22;5490;52.200;8.786;2023-03-14T10:22:26;11.70;99.90
10875;DHT22;5490;52.200;8.786;2023-03-14T10:24:55;11.70;99.90
10875;DHT22;5490;52.200;8.786;2023-03-14T10:27:29;11.70;99.90
10875;DHT22;5490;52.200;8.786;2023-03-14T10:29:58;11.60;99.90
10875;DHT22;5490;52.200;8.786;2023-03-14T10:32:32;11.60;99.90
10875;DHT22;5490;52.200;8.786;2023-03-14T10:35:20;11.50;99.90
10875;DHT22;5490;52.200;8.786;2023-03-14T10:37:51;11.40;99.90
10875;DHT22;5490;52.200;8.786;2023-03-14T10:40:22;11.20;99.90
10875;DHT22;5490;52.200;8.786;2023-03-14T10:42:58;10.90;99.90
10875;DHT22;5490;52.200;8.786;2023-03-14T10:45:32;10.60;99.90
10875;DHT22;5490;52.200;8.786;2023-03-14T10:48:05;10.30;99.90
10875;DHT22;5490;52.200;8.786;2023-03-14T10:50:32;10.00;99.90
10875;DHT22;5490;52.200;8.786;2023-03-14T10:53:03;9.90;99.90
10875;DHT22;5490;52.200;8.786;2023-03-14T10:55:40;9.60;99.90
10875;DHT22;5490;52.200;8.786;2023-03-14T10:58:18;9.30;99.90
10875;DHT22;5490;52.200;8.786;2023-03-14T11:00:47;9.10;99.90
10875;DHT22;5490;52.200;8.786;2023-03-14T11:03:16;9.00;99.90
10875;DHT22;5490;52.200;8.786;2023-03-14T11:05:48;8.90;99.90
10875;DHT22;5490;52.200;8.786;2023-03-14T11:08:23;8.80;99.90
10875;DHT22;5490;52.200;8.786;2023-03-14T11:10:53;8.70;99.90
10875;DHT22;5490;52.200;8.786;2023-03-14T11:13:24;8.60;99.90
10875;DHT22;5490;52.200;8.786;2023-03-14T11:15:58;8.50;99.90
10875;DHT22;5490;52.200;8.786;2023-03-14T11:18:56;8.30;99.90
10875;DHT22;5490;52.200;8.786;2023-03-14T11:21:31;8.10;99.90
10875;DHT22;5490;52.200;8.786;2023-03-14T11:24:20;8.00;99.90
10875;DHT22;5490;52.200;8.786;2023-03-14T11:26:55;7.80;99.90
10875;DHT22;5490;52.200;8.786;2023-03-14T11:29:33;7.50;99.90
10875;DHT22;5490;52.200;8.786;2023-03-14T11:32:11;7.40;99.90
10875;DHT22;5490;52.200;8.786;2023-03-14T11:34:46;7.20;99.90
10875;DHT22;5490;52.200;8.786;2023-03-14T11:37:18;7.00;99.90
10875;DHT22;5490;52.200;8.786;2023-03-14T11:39:56;6.80;99.90
10875;DHT22;5490;52.200;8.786;2023-03-14T11:42:26;6.70;99.90
10875;DHT22;5490;52.200;8.786;2023-03-14T11:44:55;6.60;99.90
10875;DHT22;5490;52.200;8.786;2023-03-14T11:47:24;6.50;99.90
10875;DHT22;5490;52.200;8.786;2023-03-14T11:49:56;6.50;99.90
10875;DHT22;5490;52.200;8.786;2023-03-14T11:52:30;6.40;99.90
10875;DHT22;5490;52.200;8.786;2023-03-14T11:55:04;6.40;99.90
10875;DHT22;5490;52.200;8.786;2023-03-14T11:57:31;6.30;99.90
10875;DHT22;5490;52.200;8.786;2023-03-14T12:00:00;6.30;99.90
10875;DHT22;5490;52.200;8.786;2023-03-14T12:02:35;6.30;99.90
10875;DHT22;5490;52.200;8.786;2023-03-14T12:05:33;6.40;99.90
10875;DHT22;5490;52.200;8.786;2023-03-14T12:08:22;6.30;99.90
10875;DHT22;5490;52.200;8.786;2023-03-14T12:10:55;6.30;99.90
10875;DHT22;5490;52.200;8.786;2023-03-14T12:13:28;6.30;99.90
10875;DHT22;5490;52.200;8.786;2023-03-14T12:15:56;6.40;99.90
10875;DHT22;5490;52.200;8.786;2023-03-14T12:18:27;6.50;99.90
10875;DHT22;5490;52.200;8.786;2023-03-14T12:20:57;6.60;99.90
10875;DHT22;5490;52.200;8.786;2023-03-14T12:23:25;6.70;99.90
10875;DHT22;5490;52.200;8.786;2023-03-14T12:26:13;6.80;99.90
10875;DHT22;5490;52.200;8.786;2023-03-14T12:28:43;6.90;99.90
10875;DHT22;5490;52.200;8.786;2023-03-14T12:31:36;6.90;99.90
10875;DHT22;5490;52.200;8.786;2023-03-14T12:34:23;6.90;99.90
10875;DHT22;5490;52.200;8.786;2023-03-14T12:37:17;7.00;99.90
10875;DHT22;5490;52.200;8.786;2023-03-14T12:39:54;7.00;99.90
10875;DHT22;5490;52.200;8.786;2023-03-14T12:42:37;7.00;99.90
10875;DHT22;5490;52.200;8.786;2023-03-14T12:45:22;7.00;99.90
10875;DHT22;5490;52.200;8.786;2023-03-14T12:48:01;7.00;99.90
10875;DHT22;5490;52.200;8.786;2023-03-14T12:50:34;7.00;99.90
10875;DHT22;5490;52.200;8.786;2023-03-14T12:56:28;7.10;99.90
10875;DHT22;5490;52.200;8.786;2023-03-14T12:59:18;7.20;99.90
10875;DHT22;5490;52.200;8.786;2023-03-14T13:01:53;7.20;99.90
10875;DHT22;5490;52.200;8.786;2023-03-14T13:04:31;7.30;99.90
10875;DHT22;5490;52.200;8.786;2023-03-14T13:07:12;7.30;99.90
10875;DHT22;5490;52.200;8.786;2023-03-14T13:10:02;7.30;99.90
10875;DHT22;5490;52.200;8.786;2023-03-14T13:12:34;7.30;99.90
10875;DHT22;5490;52.200;8.786;2023-03-14T13:15:17;7.30;99.90
10875;DHT22;5490;52.200;8.786;2023-03-14T13:17:46;7.30;99.90
10875;DHT22;5490;52.200;8.786;2023-03-14T13:20:18;7.20;99.90
10875;DHT22;5490;52.200;8.786;2023-03-14T13:22:48;7.20;99.90
10875;DHT22;5490;52.200;8.786;2023-03-14T13:25:15;7.20;99.90
10875;DHT22;5490;52.200;8.786;2023-03-14T13:27:43;7.20;99.90
10875;DHT22;5490;52.200;8.786;2023-03-14T13:30:22;7.20;99.90
10875;DHT22;5490;52.200;8.786;2023-03-14T13:32:50;7.10;99.90
10875;DHT22;5490;52.200;8.786;2023-03-14T13:35:19;7.10;99.90
10875;DHT22;5490;52.200;8.786;2023-03-14T13:37:47;7.10;99.90
10875;DHT22;5490;52.200;8.786;2023-03-14T13:40:25;6.90;99.90
10875;DHT22;5490;52.200;8.786;2023-03-14T13:43:04;6.80;99.90
10875;DHT22;5490;52.200;8.786;2023-03-14T13:45:44;6.70;99.90
10875;DHT22;5490;52.200;8.786;2023-03-14T13:48:12;6.70;99.90
10875;DHT22;5490;52.200;8.786;2023-03-14T13:50:54;6.70;99.90
10875;DHT22;5490;52.200;8.786;2023-03-14T13:53:22;6.70;99.90
10875;DHT22;5490;52.200;8.786;2023-03-14T13:55:49;6.80;99.90
10875;DHT22;5490;52.200;8.786;2023-03-14T14:15:31;7.30;99.90
10875;DHT22;5490;52.200;8.786;2023-03-14T14:22:08;7.10;99.90
10875;DHT22;5490;52.200;8.786;2023-03-14T14:27:58;7.10;99.90
10875;DHT22;5490;52.200;8.786;2023-03-14T14:34:40;7.20;99.90
10875;DHT22;5490;52.200;8.786;2023-03-14T14:58:20;7.50;99.90
10875;DHT22;5490;52.200;8.786;2023-03-14T15:00:55;7.40;99.90
10875;DHT22;5490;52.200;8.786;2023-03-14T15:03:22;7.20;99.90
10875;DHT22;5490;52.200;8.786;2023-03-14T15:05:53;7.10;99.90
10875;DHT22;5490;52.200;8.786;2023-03-14T15:08:20;7.00;99.90
10875;DHT22;5490;52.200;8.786;2023-03-14T15:10:48;7.00;99.90
10875;DHT22;5490;52.200;8.786;2023-03-14T15:13:16;6.80;99.90
10875;DHT22;5490;52.200;8.786;2023-03-14T15:15:43;6.70;99.90
10875;DHT22;5490;52.200;8.786;2023-03-14T15:18:13;6.60;99.90
10875;DHT22;5490;52.200;8.786;2023-03-14T15:20:41;6.60;99.90
10875;DHT22;5490;52.200;8.786;2023-03-14T15:23:11;6.60;99.90
10875;DHT22;5490;52.200;8.786;2023-03-14T15:25:38;6.60;99.90
10875;DHT22;5490;52.200;8.786;2023-03-14T15:28:17;6.60;99.90
10875;DHT22;5490;52.200;8.786;2023-03-14T15:30:46;6.60;99.90
10875;DHT22;5490;52.200;8.786;2023-03-14T15:33:13;6.60;99.90
10875;DHT22;5490;52.200;8.786;2023-03-14T15:35:40;6.60;99.90
10875;DHT22;5490;52.200;8.786;2023-03-14T15:38:10;6.70;99.90
10875;DHT22;5490;52.200;8.786;2023-03-14T15:40:40;6.70;99.90
10875;DHT22;5490;52.200;8.786;2023-03-14T15:50:28;6.80;99.90
10875;DHT22;5490;52.200;8.786;2023-03-14T15:56:05;7.00;99.90
10875;DHT22;5490;52.200;8.786;2023-03-14T15:58:38;7.00;99.90
10875;DHT22;5490;52.200;8.786;2023-03-14T16:04:45;7.20;99.90
10875;DHT22;5490;52.200;8.786;2023-03-14T16:07:13;7.10;99.90
10875;DHT22;5490;52.200;8.786;2023-03-14T16:09:40;7.20;99.90
10875;DHT22;5490;52.200;8.786;2023-03-14T16:12:07;7.20;99.90
10875;DHT22;5490;52.200;8.786;2023-03-14T16:14:35;7.20;99.90
10875;DHT22;5490;52.200;8.786;2023-03-14T16:17:02;7.20;99.90
10875;DHT22;5490;52.200;8.786;2023-03-14T16:19:29;7.10;99.90
10875;DHT22;5490;52.200;8.786;2023-03-14T16:22:05;7.10;99.90
10875;DHT22;5490;52.200;8.786;2023-03-14T16:24:39;7.00;99.90
10875;DHT22;5490;52.200;8.786;2023-03-14T16:27:11;7.00;99.90
10875;DHT22;5490;52.200;8.786;2023-03-14T16:29:57;6.90;99.90
10875;DHT22;5490;52.200;8.786;2023-03-14T16:36:27;6.80;99.90
10875;DHT22;5490;52.200;8.786;2023-03-14T16:39:26;6.80;99.90
10875;DHT22;5490;52.200;8.786;2023-03-14T16:41:58;6.60;99.90
10875;DHT22;5490;52.200;8.786;2023-03-14T16:44:29;6.60;99.90
10875;DHT22;5490;52.200;8.786;2023-03-14T16:46:59;6.60;99.90
10875;DHT22;5490;52.200;8.786;2023-03-14T16:50:17;6.60;99.90
10875;DHT22;5490;52.200;8.786;2023-03-14T16:52:56;6.60;99.90
10875;DHT22;5490;52.200;8.786;2023-03-14T16:55:55;6.50;99.90
10875;DHT22;5490;52.200;8.786;2023-03-14T17:02:03;6.50;99.90
10875;DHT22;5490;52.200;8.786;2023-03-14T17:04:30;6.40;99.90
10875;DHT22;5490;52.200;8.786;2023-03-14T17:06:57;6.30;99.90
10875;DHT22;5490;52.200;8.786;2023-03-14T17:09:24;6.30;99.90
10875;DHT22;5490;52.200;8.786;2023-03-14T17:11:53;6.20;99.90
10875;DHT22;5490;52.200;8.786;2023-03-14T17:14:20;6.10;99.90
10875;DHT22;5490;52.200;8.786;2023-03-14T17:16:50;6.00;99.90
10875;DHT22;5490;52.200;8.786;2023-03-14T17:19:18;6.00;99.90
10875;DHT22;5490;52.200;8.786;2023-03-14T17:21:45;5.90;99.90
10875;DHT22;5490;52.200;8.786;2023-03-14T17:24:12;5.80;99.90
10875;DHT22;5490;52.200;8.786;2023-03-14T17:26:38;5.70;99.90
10875;DHT22;5490;52.200;8.786;2023-03-14T17:29:05;5.70;99.90
10875;DHT22;5490;52.200;8.786;2023-03-14T17:31:32;5.60;99.90
10875;DHT22;5490;52.200;8.786;2023-03-14T17:33:59;5.60;99.90
10875;DHT22;5490;52.200;8.786;2023-03-14T17:36:27;5.60;99.90
10875;DHT22;5490;52.200;8.786;2023-03-14T17:38:58;5.50;99.90
10875;DHT22;5490;52.200;8.786;2023-03-14T17:41:27;5.50;99.90
10875;DHT22;5490;52.200;8.786;2023-03-14T17:43:54;5.50;99.90
10875;DHT22;5490;52.200;8.786;2023-03-14T17:46:22;5.50;99.90
10875;DHT22;5490;52.200;8.786;2023-03-14T17:48:50;5.50;99.90
10875;DHT22;5490;52.200;8.786;2023-03-14T17:51:22;5.40;99.90
10875;DHT22;5490;52.200;8.786;2023-03-14T17:53:55;5.40;99.90
10875;DHT22;5490;52.200;8.786;2023-03-14T17:56:24;5.40;99.90
10875;DHT22;5490;52.200;8.786;2023-03-14T17:59:22;5.50;99.90
10875;DHT22;5490;52.200;8.786;2023-03-14T18:01:49;5.60;99.90
10875;DHT22;5490;52.200;8.786;2023-03-14T18:04:16;5.60;99.90
10875;DHT22;5490;52.200;8.786;2023-03-14T18:06:45;5.60;99.90
10875;DHT22;5490;52.200;8.786;2023-03-14T18:09:13;5.60;99.90
10875;DHT22;5490;52.200;8.786;2023-03-14T18:11:41;5.70;99.90
10875;DHT22;5490;52.200;8.786;2023-03-14T18:14:13;5.70;99.90